GLO2105 SBPA-SBFL
Flight info
| Callsign | GLO2105 |
|---|---|
| Flight time | 0h 42m |
| Altitude | 21000 |
| Route | DAISE DCT DADMO |
| Aircraft | B38M/M-SDFGHIJ4J7KLORWXY/LB1 |
Departure
| Time | 2026-04-21 21:11 |
|---|---|
| Airport | Porto Alegre-Salgado Filho International Airport (SBPA) |
Arrival
| Time | 2026-04-21 21:53 |
|---|---|
| Airport | Hercílio Luz International Airport (SBFL) |
| Time | Latitude | Longitude | Altitude | Speed | Heading |
|---|---|---|---|---|---|
| 2026-04-21 20:43 | -29.99101 | -51.17629 | 22 ft | 0 kts | 13° |
| 2026-04-21 21:00 | -29.99103 | -51.17632 | 22 ft | 4 kts | 345° |
| 2026-04-21 21:00 | -29.99123 | -51.17636 | 25 ft | 4 kts | 5° |
| 2026-04-21 21:01 | -29.99149 | -51.17633 | 25 ft | 4 kts | 337° |
| 2026-04-21 21:01 | -29.99168 | -51.17615 | 21 ft | 4 kts | 291° |
| 2026-04-21 21:01 | -29.99170 | -51.17603 | 25 ft | 1 kts | 271° |
| 2026-04-21 21:07 | -29.99170 | -51.17631 | 24 ft | 9 kts | 271° |
| 2026-04-21 21:07 | -29.99166 | -51.17744 | 21 ft | 15 kts | 278° |
| 2026-04-21 21:07 | -29.99152 | -51.17856 | 21 ft | 14 kts | 281° |
| 2026-04-21 21:08 | -29.99106 | -51.17959 | 21 ft | 13 kts | 279° |
| 2026-04-21 21:08 | -29.99168 | -51.18020 | 21 ft | 13 kts | 206° |
| 2026-04-21 21:08 | -29.99226 | -51.18100 | 23 ft | 14 kts | 241° |
| 2026-04-21 21:08 | -29.99276 | -51.18185 | 21 ft | 12 kts | 213° |
| 2026-04-21 21:09 | -29.99284 | -51.18189 | 22 ft | 0 kts | 207° |
| 2026-04-21 21:09 | -29.99285 | -51.18190 | 22 ft | 1 kts | 207° |
| 2026-04-21 21:09 | -29.99315 | -51.18207 | 22 ft | 10 kts | 207° |
| 2026-04-21 21:09 | -29.99396 | -51.18254 | 23 ft | 14 kts | 196° |
| 2026-04-21 21:10 | -29.99442 | -51.18199 | 24 ft | 0 kts | 90° |
| 2026-04-21 21:11 | -29.99442 | -51.18183 | 26 ft | 15 kts | 90° |
| 2026-04-21 21:11 | -29.99450 | -51.17709 | 28 ft | 101 kts | 91° |
| 2026-04-21 21:11 | -29.99471 | -51.16607 | 35 ft | 169 kts | 91° |
| 2026-04-21 21:11 | -29.99508 | -51.15164 | 650 ft | 187 kts | 92° |
| 2026-04-21 21:12 | -29.99547 | -51.13612 | 1465 ft | 203 kts | 92° |
| 2026-04-21 21:12 | -29.99578 | -51.11837 | 2027 ft | 236 kts | 91° |
| 2026-04-21 21:12 | -29.99607 | -51.09871 | 2845 ft | 255 kts | 89° |
| 2026-04-21 21:12 | -29.99643 | -51.07761 | 3746 ft | 268 kts | 89° |
| 2026-04-21 21:13 | -29.99627 | -51.05613 | 4798 ft | 275 kts | 79° |
| 2026-04-21 21:13 | -29.98982 | -51.03557 | 5743 ft | 276 kts | 52° |
| 2026-04-21 21:13 | -29.97632 | -51.02040 | 6843 ft | 272 kts | 28° |
| 2026-04-21 21:13 | -29.95864 | -51.01276 | 7716 ft | 273 kts | 4° |
| 2026-04-21 21:14 | -29.93970 | -51.01282 | 8734 ft | 274 kts | 355° |
| 2026-04-21 21:14 | -29.92062 | -51.00907 | 9648 ft | 287 kts | 21° |
| 2026-04-21 21:14 | -29.90273 | -50.99706 | 10100 ft | 309 kts | 29° |
| 2026-04-21 21:14 | -29.88413 | -50.98357 | 10139 ft | 322 kts | 28° |
| 2026-04-21 21:15 | -29.86517 | -50.96995 | 10231 ft | 328 kts | 28° |
| 2026-04-21 21:15 | -29.84555 | -50.95595 | 10671 ft | 333 kts | 28° |
| 2026-04-21 21:15 | -29.82581 | -50.94190 | 11611 ft | 336 kts | 28° |
| 2026-04-21 21:15 | -29.80562 | -50.92785 | 12406 ft | 340 kts | 23° |
| 2026-04-21 21:16 | -29.78313 | -50.92021 | 13249 ft | 336 kts | 1° |
| 2026-04-21 21:16 | -29.75968 | -50.91990 | 14028 ft | 340 kts | 356° |
| 2026-04-21 21:16 | -29.73577 | -50.92004 | 14729 ft | 345 kts | 356° |
| 2026-04-21 21:16 | -29.71154 | -50.92033 | 15453 ft | 349 kts | 355° |
| 2026-04-21 21:17 | -29.68740 | -50.92070 | 16161 ft | 354 kts | 355° |
| 2026-04-21 21:17 | -29.66254 | -50.92112 | 16843 ft | 359 kts | 355° |
| 2026-04-21 21:17 | -29.63737 | -50.92157 | 17533 ft | 363 kts | 355° |
| 2026-04-21 21:17 | -29.61194 | -50.92203 | 18210 ft | 367 kts | 355° |
| 2026-04-21 21:18 | -29.58624 | -50.92251 | 18776 ft | 370 kts | 355° |
| 2026-04-21 21:18 | -29.56031 | -50.92308 | 19288 ft | 373 kts | 355° |
| 2026-04-21 21:18 | -29.53447 | -50.92369 | 19821 ft | 376 kts | 355° |
| 2026-04-21 21:18 | -29.50810 | -50.92430 | 20345 ft | 379 kts | 354° |
| 2026-04-21 21:19 | -29.48161 | -50.92493 | 20846 ft | 383 kts | 354° |
| 2026-04-21 21:19 | -29.45514 | -50.92554 | 21037 ft | 384 kts | 354° |
| 2026-04-21 21:19 | -29.42853 | -50.92617 | 21090 ft | 380 kts | 354° |
| 2026-04-21 21:19 | -29.40203 | -50.92679 | 21088 ft | 380 kts | 354° |
| 2026-04-21 21:20 | -29.37547 | -50.92741 | 21107 ft | 380 kts | 354° |
| 2026-04-21 21:20 | -29.34934 | -50.92802 | 21105 ft | 380 kts | 354° |
| 2026-04-21 21:20 | -29.32287 | -50.92864 | 21109 ft | 380 kts | 354° |
| 2026-04-21 21:20 | -29.29640 | -50.92926 | 21111 ft | 379 kts | 354° |
| 2026-04-21 21:21 | -29.26996 | -50.92987 | 21101 ft | 379 kts | 354° |
| 2026-04-21 21:21 | -29.24348 | -50.93048 | 21108 ft | 380 kts | 355° |
| 2026-04-21 21:21 | -29.21709 | -50.92699 | 21097 ft | 387 kts | 12° |
| 2026-04-21 21:21 | -29.19268 | -50.91418 | 21104 ft | 396 kts | 30° |
| 2026-04-21 21:22 | -29.17077 | -50.89454 | 21113 ft | 400 kts | 35° |
| 2026-04-21 21:22 | -29.14913 | -50.87428 | 21105 ft | 400 kts | 36° |
| 2026-04-21 21:22 | -29.12789 | -50.85417 | 21111 ft | 401 kts | 36° |
| 2026-04-21 21:22 | -29.10632 | -50.83360 | 21110 ft | 401 kts | 36° |
| 2026-04-21 21:23 | -29.08487 | -50.81309 | 21107 ft | 401 kts | 36° |
| 2026-04-21 21:23 | -29.06370 | -50.79230 | 21103 ft | 403 kts | 42° |
| 2026-04-21 21:23 | -29.04699 | -50.76638 | 21096 ft | 408 kts | 61° |
| 2026-04-21 21:23 | -29.03523 | -50.73708 | 21115 ft | 410 kts | 63° |
| 2026-04-21 21:24 | -29.02347 | -50.70731 | 21112 ft | 410 kts | 64° |
| 2026-04-21 21:24 | -29.01189 | -50.67752 | 21109 ft | 410 kts | 64° |
| 2026-04-21 21:24 | -29.00037 | -50.64761 | 21113 ft | 411 kts | 64° |
| 2026-04-21 21:24 | -28.98887 | -50.61768 | 21112 ft | 410 kts | 64° |
| 2026-04-21 21:25 | -28.97750 | -50.58804 | 21111 ft | 410 kts | 64° |
| 2026-04-21 21:25 | -28.96605 | -50.55822 | 21109 ft | 409 kts | 64° |
| 2026-04-21 21:25 | -28.95454 | -50.52826 | 21115 ft | 410 kts | 64° |
| 2026-04-21 21:25 | -28.94313 | -50.49858 | 21112 ft | 410 kts | 64° |
| 2026-04-21 21:26 | -28.93165 | -50.46871 | 21116 ft | 410 kts | 64° |
| 2026-04-21 21:26 | -28.92030 | -50.43925 | 21120 ft | 410 kts | 64° |
| 2026-04-21 21:26 | -28.90878 | -50.40935 | 21114 ft | 410 kts | 64° |
| 2026-04-21 21:26 | -28.89726 | -50.37948 | 21119 ft | 409 kts | 64° |
| 2026-04-21 21:27 | -28.88595 | -50.35015 | 21115 ft | 409 kts | 64° |
| 2026-04-21 21:27 | -28.87442 | -50.32030 | 21113 ft | 409 kts | 64° |
| 2026-04-21 21:27 | -28.86291 | -50.29053 | 21143 ft | 409 kts | 64° |
| 2026-04-21 21:27 | -28.85141 | -50.26079 | 21122 ft | 409 kts | 64° |
| 2026-04-21 21:28 | -28.83999 | -50.23131 | 21118 ft | 409 kts | 64° |
| 2026-04-21 21:28 | -28.82846 | -50.20154 | 21109 ft | 409 kts | 64° |
| 2026-04-21 21:28 | -28.80428 | -50.14277 | 21103 ft | 405 kts | 54° |
| 2026-04-21 21:29 | -28.78869 | -50.11647 | 21118 ft | 406 kts | 54° |
| 2026-04-21 21:29 | -28.77333 | -50.08928 | 21116 ft | 406 kts | 55° |
| 2026-04-21 21:29 | -28.75830 | -50.06228 | 21127 ft | 406 kts | 55° |
| 2026-04-21 21:29 | -28.74329 | -50.03502 | 21119 ft | 406 kts | 56° |
| 2026-04-21 21:30 | -28.72826 | -50.00760 | 21117 ft | 406 kts | 56° |
| 2026-04-21 21:30 | -28.71834 | -49.98949 | 21122 ft | 406 kts | 56° |
| 2026-04-21 21:30 | -28.69832 | -49.95291 | 21112 ft | 406 kts | 56° |
| 2026-04-21 21:30 | -28.68354 | -49.92592 | 21113 ft | 405 kts | 56° |
| 2026-04-21 21:31 | -28.66851 | -49.89850 | 21114 ft | 405 kts | 56° |
| 2026-04-21 21:31 | -28.65858 | -49.88039 | 21125 ft | 405 kts | 56° |
| 2026-04-21 21:31 | -28.64374 | -49.85335 | 21111 ft | 405 kts | 56° |
| 2026-04-21 21:31 | -28.62874 | -49.82601 | 21115 ft | 405 kts | 56° |
| 2026-04-21 21:32 | -28.61386 | -49.79893 | 21131 ft | 405 kts | 56° |
| 2026-04-21 21:32 | -28.59885 | -49.77162 | 21115 ft | 405 kts | 56° |
| 2026-04-21 21:32 | -28.58377 | -49.74422 | 21118 ft | 405 kts | 56° |
| 2026-04-21 21:32 | -28.56889 | -49.71717 | 21107 ft | 405 kts | 56° |
| 2026-04-21 21:33 | -28.55387 | -49.68990 | 21115 ft | 405 kts | 56° |
| 2026-04-21 21:33 | -28.53906 | -49.66303 | 21101 ft | 405 kts | 56° |
| 2026-04-21 21:33 | -28.52404 | -49.63579 | 21098 ft | 405 kts | 56° |
| 2026-04-21 21:33 | -28.50900 | -49.60855 | 21096 ft | 405 kts | 55° |
| 2026-04-21 21:34 | -28.49413 | -49.58162 | 21113 ft | 405 kts | 56° |
| 2026-04-21 21:34 | -28.47908 | -49.55437 | 21002 ft | 403 kts | 56° |
| 2026-04-21 21:34 | -28.46427 | -49.52757 | 20425 ft | 404 kts | 56° |
| 2026-04-21 21:34 | -28.44926 | -49.50045 | 20016 ft | 402 kts | 56° |
| 2026-04-21 21:35 | -28.43448 | -49.47377 | 19605 ft | 400 kts | 56° |
| 2026-04-21 21:35 | -28.41960 | -49.44688 | 19176 ft | 399 kts | 56° |
| 2026-04-21 21:35 | -28.40492 | -49.42040 | 18753 ft | 397 kts | 56° |
| 2026-04-21 21:35 | -28.39012 | -49.39372 | 18334 ft | 396 kts | 56° |
| 2026-04-21 21:36 | -28.37565 | -49.36764 | 17872 ft | 394 kts | 56° |
| 2026-04-21 21:36 | -28.36105 | -49.34135 | 17442 ft | 391 kts | 56° |
| 2026-04-21 21:36 | -28.34649 | -49.31516 | 17026 ft | 388 kts | 56° |
| 2026-04-21 21:36 | -28.33226 | -49.28954 | 16632 ft | 385 kts | 56° |
| 2026-04-21 21:37 | -28.31796 | -49.26385 | 16237 ft | 382 kts | 56° |
| 2026-04-21 21:37 | -28.30389 | -49.23858 | 15843 ft | 380 kts | 56° |
| 2026-04-21 21:37 | -28.28973 | -49.21316 | 15444 ft | 377 kts | 56° |
| 2026-04-21 21:37 | -28.27587 | -49.18830 | 15066 ft | 375 kts | 56° |
| 2026-04-21 21:38 | -28.26190 | -49.16325 | 14679 ft | 372 kts | 56° |
| 2026-04-21 21:38 | -28.24808 | -49.13847 | 14296 ft | 370 kts | 56° |
| 2026-04-21 21:38 | -28.23450 | -49.11415 | 13919 ft | 368 kts | 56° |
| 2026-04-21 21:38 | -28.22078 | -49.08959 | 13481 ft | 366 kts | 56° |
| 2026-04-21 21:39 | -28.20717 | -49.06523 | 13092 ft | 363 kts | 56° |
| 2026-04-21 21:39 | -28.19373 | -49.04122 | 12706 ft | 360 kts | 56° |
| 2026-04-21 21:39 | -28.18035 | -49.01731 | 12327 ft | 357 kts | 56° |
| 2026-04-21 21:39 | -28.16709 | -48.99362 | 11960 ft | 354 kts | 56° |
| 2026-04-21 21:40 | -28.15394 | -48.97015 | 11597 ft | 351 kts | 56° |
| 2026-04-21 21:40 | -28.14092 | -48.94691 | 11244 ft | 348 kts | 56° |
| 2026-04-21 21:40 | -28.12811 | -48.92408 | 10914 ft | 344 kts | 56° |
| 2026-04-21 21:40 | -28.11544 | -48.90149 | 10761 ft | 335 kts | 56° |
| 2026-04-21 21:41 | -28.10308 | -48.87947 | 10618 ft | 326 kts | 56° |
| 2026-04-21 21:41 | -28.09106 | -48.85809 | 10474 ft | 317 kts | 57° |
| 2026-04-21 21:41 | -28.07935 | -48.83723 | 10338 ft | 309 kts | 56° |
| 2026-04-21 21:41 | -28.06793 | -48.81693 | 10199 ft | 301 kts | 56° |
| 2026-04-21 21:42 | -28.05697 | -48.79747 | 10036 ft | 294 kts | 56° |
| 2026-04-21 21:42 | -28.04601 | -48.77799 | 9724 ft | 292 kts | 56° |
| 2026-04-21 21:42 | -28.03511 | -48.75862 | 9413 ft | 291 kts | 56° |
| 2026-04-21 21:42 | -28.02422 | -48.73928 | 9108 ft | 289 kts | 56° |
| 2026-04-21 21:43 | -28.01341 | -48.72009 | 8804 ft | 287 kts | 55° |
| 2026-04-21 21:43 | -28.00273 | -48.70115 | 8501 ft | 284 kts | 56° |
| 2026-04-21 21:43 | -27.99211 | -48.68233 | 8197 ft | 282 kts | 56° |
| 2026-04-21 21:43 | -27.98159 | -48.66368 | 7914 ft | 281 kts | 55° |
| 2026-04-21 21:44 | -27.97120 | -48.64527 | 7601 ft | 280 kts | 56° |
| 2026-04-21 21:44 | -27.96075 | -48.62680 | 7312 ft | 277 kts | 56° |
| 2026-04-21 21:44 | -27.95043 | -48.60850 | 7049 ft | 274 kts | 55° |
| 2026-04-21 21:44 | -27.94017 | -48.59035 | 6768 ft | 272 kts | 55° |
| 2026-04-21 21:45 | -27.92998 | -48.57233 | 6486 ft | 270 kts | 55° |
| 2026-04-21 21:45 | -27.92008 | -48.55482 | 6292 ft | 265 kts | 56° |
| 2026-04-21 21:45 | -27.91041 | -48.53773 | 6156 ft | 251 kts | 56° |
| 2026-04-21 21:45 | -27.90124 | -48.52154 | 6068 ft | 236 kts | 56° |
| 2026-04-21 21:46 | -27.89261 | -48.50630 | 5933 ft | 224 kts | 55° |
| 2026-04-21 21:46 | -27.88442 | -48.49185 | 5801 ft | 214 kts | 55° |
| 2026-04-21 21:46 | -27.87654 | -48.47796 | 5683 ft | 205 kts | 55° |
| 2026-04-21 21:46 | -27.86900 | -48.46465 | 5535 ft | 197 kts | 56° |
| 2026-04-21 21:47 | -27.86155 | -48.45151 | 5438 ft | 201 kts | 55° |
| 2026-04-21 21:47 | -27.85399 | -48.43820 | 5358 ft | 205 kts | 55° |
| 2026-04-21 21:47 | -27.84429 | -48.42676 | 5165 ft | 200 kts | 31° |
| 2026-04-21 21:47 | -27.83256 | -48.41856 | 4965 ft | 194 kts | 30° |
| 2026-04-21 21:48 | -27.82114 | -48.41056 | 4663 ft | 192 kts | 30° |
| 2026-04-21 21:48 | -27.80992 | -48.40278 | 4345 ft | 190 kts | 29° |
| 2026-04-21 21:48 | -27.79873 | -48.39507 | 4074 ft | 186 kts | 29° |
| 2026-04-21 21:48 | -27.78784 | -48.38761 | 3890 ft | 178 kts | 28° |
| 2026-04-21 21:49 | -27.77749 | -48.38076 | 3716 ft | 173 kts | 22° |
| 2026-04-21 21:49 | -27.76584 | -48.37952 | 3460 ft | 170 kts | 345° |
| 2026-04-21 21:49 | -27.75591 | -48.38655 | 3158 ft | 171 kts | 311° |
| 2026-04-21 21:49 | -27.74910 | -48.39768 | 2915 ft | 173 kts | 304° |
| 2026-04-21 21:50 | -27.74274 | -48.40907 | 2650 ft | 174 kts | 304° |
| 2026-04-21 21:50 | -27.73626 | -48.42079 | 2323 ft | 176 kts | 304° |
| 2026-04-21 21:50 | -27.73009 | -48.43204 | 2129 ft | 162 kts | 305° |
| 2026-04-21 21:50 | -27.72425 | -48.44259 | 1922 ft | 154 kts | 304° |
| 2026-04-21 21:51 | -27.71875 | -48.45275 | 1678 ft | 149 kts | 304° |
| 2026-04-21 21:51 | -27.71343 | -48.46265 | 1405 ft | 147 kts | 305° |
| 2026-04-21 21:51 | -27.70818 | -48.47241 | 1178 ft | 147 kts | 305° |
| 2026-04-21 21:51 | -27.70287 | -48.48227 | 977 ft | 147 kts | 303° |
| 2026-04-21 21:52 | -27.69763 | -48.49208 | 798 ft | 144 kts | 302° |
| 2026-04-21 21:52 | -27.69248 | -48.50183 | 614 ft | 148 kts | 303° |
| 2026-04-21 21:52 | -27.68705 | -48.51157 | 421 ft | 146 kts | 302° |
| 2026-04-21 21:52 | -27.68185 | -48.52146 | 242 ft | 144 kts | 303° |
| 2026-04-21 21:53 | -27.67652 | -48.53097 | 59 ft | 144 kts | 302° |
| 2026-04-21 21:53 | -27.67161 | -48.54028 | 28 ft | 117 kts | 301° |
| 2026-04-21 21:53 | -27.66857 | -48.54588 | 32 ft | 62 kts | 301° |
| 2026-04-21 21:53 | -27.66706 | -48.54871 | 29 ft | 30 kts | 301° |
| 2026-04-21 21:54 | -27.66624 | -48.55025 | 28 ft | 18 kts | 301° |
| 2026-04-21 21:54 | -27.66617 | -48.55133 | 30 ft | 11 kts | 216° |
| 2026-04-21 21:54 | -27.66691 | -48.55129 | 30 ft | 12 kts | 165° |
| 2026-04-21 21:54 | -27.66770 | -48.55095 | 30 ft | 13 kts | 141° |
| 2026-04-21 21:55 | -27.66826 | -48.55006 | 30 ft | 13 kts | 120° |
| 2026-04-21 21:55 | -27.66873 | -48.54919 | 30 ft | 12 kts | 122° |
| 2026-04-21 21:55 | -27.66922 | -48.54829 | 30 ft | 15 kts | 121° |
| 2026-04-21 21:55 | -27.66977 | -48.54725 | 30 ft | 16 kts | 121° |
| 2026-04-21 21:56 | -27.67021 | -48.54644 | 30 ft | 11 kts | 121° |
| 2026-04-21 21:56 | -27.67076 | -48.54599 | 31 ft | 9 kts | 185° |
| 2026-04-21 21:56 | -27.67138 | -48.54618 | 31 ft | 9 kts | 179° |
| 2026-04-21 21:56 | -27.67200 | -48.54591 | 31 ft | 10 kts | 137° |
| 2026-04-21 21:57 | -27.67243 | -48.54529 | 31 ft | 8 kts | 148° |
| 2026-04-21 21:57 | -27.67271 | -48.54534 | 31 ft | 2 kts | 210° |
| 2026-04-21 21:57 | -27.67278 | -48.54539 | 31 ft | 2 kts | 211° |
| 2026-04-21 21:57 | -27.67283 | -48.54542 | 31 ft | 0 kts | 211° |